createdAt,value
2017-09-16T00:02:21.391Z,91.50
2017-09-16T00:04:49.783Z,92.00
2017-09-16T00:07:19.194Z,92.00
2017-09-16T00:09:46.833Z,92.00
2017-09-16T00:12:14.433Z,92.10
2017-09-16T00:14:42.053Z,92.20
2017-09-16T00:17:10.500Z,92.10
2017-09-16T00:19:38.110Z,92.10
2017-09-16T00:22:05.722Z,92.00
2017-09-16T00:24:33.378Z,92.00
2017-09-16T00:27:01.056Z,92.20
2017-09-16T00:29:28.666Z,92.30
2017-09-16T00:31:57.044Z,92.10
2017-09-16T00:34:24.689Z,92.10
2017-09-16T00:36:52.349Z,92.30
2017-09-16T00:39:22.300Z,92.10
2017-09-16T00:41:49.909Z,92.00
2017-09-16T00:44:17.972Z,92.00
2017-09-16T00:46:45.617Z,92.20
2017-09-16T00:49:13.216Z,92.10
2017-09-16T00:51:40.869Z,92.10
2017-09-16T00:54:08.509Z,92.20
2017-09-16T00:56:36.189Z,92.30
2017-09-16T00:59:04.596Z,92.20
2017-09-16T01:01:32.250Z,92.20
2017-09-16T01:04:00.649Z,92.40
2017-09-16T01:06:28.273Z,92.30
2017-09-16T01:08:55.969Z,92.50
2017-09-16T01:11:23.599Z,92.60
2017-09-16T01:13:51.999Z,92.70
2017-09-16T01:16:19.639Z,92.40
2017-09-16T01:18:47.280Z,92.50
2017-09-16T01:21:14.920Z,92.30
2017-09-16T01:23:42.598Z,92.40
2017-09-16T01:26:10.220Z,92.40
2017-09-16T01:28:37.840Z,92.60
2017-09-16T01:31:05.454Z,92.80
2017-09-16T01:33:33.058Z,92.80
2017-09-16T01:36:00.701Z,93.00
2017-09-16T01:38:28.352Z,92.90
2017-09-16T01:40:56.854Z,92.80
2017-09-16T01:43:24.458Z,92.80
2017-09-16T01:45:52.093Z,92.80
2017-09-16T01:48:19.699Z,92.60
2017-09-16T01:50:47.308Z,92.70
2017-09-16T01:53:14.964Z,92.70
2017-09-16T01:55:42.553Z,92.80
2017-09-16T01:58:11.148Z,92.80
2017-09-16T02:00:38.895Z,92.80
2017-09-16T02:03:06.509Z,92.80
2017-09-16T02:05:34.104Z,92.80
2017-09-16T02:08:02.491Z,93.00
2017-09-16T02:10:30.134Z,93.00
2017-09-16T02:12:57.764Z,93.10
2017-09-16T02:15:25.468Z,93.20
2017-09-16T02:17:53.759Z,93.20
2017-09-16T02:20:21.393Z,93.10
2017-09-16T02:22:49.065Z,93.10
2017-09-16T02:25:17.545Z,93.20
2017-09-16T02:27:45.916Z,93.20
2017-09-16T02:30:13.550Z,93.20
2017-09-16T02:32:41.141Z,93.20
2017-09-16T02:35:08.742Z,93.20
2017-09-16T02:37:36.467Z,93.40
2017-09-16T02:40:04.143Z,93.10
2017-09-16T02:42:32.518Z,93.10
2017-09-16T02:45:00.178Z,93.10
2017-09-16T02:47:27.802Z,93.10
2017-09-16T02:49:55.428Z,93.20
2017-09-16T02:52:23.064Z,93.10
2017-09-16T02:54:50.733Z,93.20
2017-09-16T02:57:18.363Z,93.50
2017-09-16T02:59:46.054Z,93.10
2017-09-16T03:02:13.712Z,93.20
2017-09-16T03:04:41.332Z,93.30
2017-09-16T03:07:08.993Z,93.20
2017-09-16T03:09:36.585Z,93.10
2017-09-16T03:12:04.216Z,93.10
2017-09-16T03:14:31.844Z,93.10
2017-09-16T03:16:59.536Z,93.00
2017-09-16T03:19:27.232Z,93.00
2017-09-16T03:21:55.652Z,92.90
2017-09-16T03:24:23.351Z,92.90
2017-09-16T03:26:51.024Z,92.90
2017-09-16T03:29:19.515Z,92.80
2017-09-16T03:31:47.882Z,92.80
2017-09-16T03:34:15.490Z,92.80
2017-09-16T03:36:43.095Z,92.70
2017-09-16T03:39:10.766Z,92.60
2017-09-16T03:41:38.373Z,92.60
2017-09-16T03:44:06.073Z,92.60
2017-09-16T03:46:33.737Z,92.60
2017-09-16T03:49:01.500Z,92.50
2017-09-16T03:51:29.135Z,92.40
2017-09-16T03:53:56.796Z,91.80
2017-09-16T03:56:24.396Z,91.70
2017-09-16T03:58:52.043Z,91.70
2017-09-16T04:01:32.302Z,91.80
2017-09-16T04:03:59.962Z,91.80
2017-09-16T04:06:27.666Z,91.60
2017-09-16T04:08:55.349Z,91.60
2017-09-16T04:11:22.984Z,91.50
2017-09-16T04:13:51.437Z,91.40
2017-09-16T04:16:20.145Z,91.40
2017-09-16T04:18:48.599Z,91.50
2017-09-16T04:21:16.195Z,91.30
2017-09-16T04:23:44.558Z,91.50
2017-09-16T04:26:12.181Z,91.50
2017-09-16T04:28:39.844Z,91.30
2017-09-16T04:31:08.328Z,91.30
2017-09-16T04:33:36.305Z,91.20
2017-09-16T04:36:03.959Z,91.40
2017-09-16T04:38:31.590Z,91.20
2017-09-16T04:40:59.288Z,91.20
2017-09-16T04:43:26.921Z,91.10
2017-09-16T04:45:54.550Z,91.00
2017-09-16T04:48:22.986Z,90.90
2017-09-16T04:50:50.655Z,90.90
2017-09-16T04:53:18.303Z,91.00
2017-09-16T04:55:46.014Z,91.20
2017-09-16T04:58:13.652Z,91.20
2017-09-16T05:00:41.272Z,91.40
2017-09-16T05:03:08.912Z,91.30
2017-09-16T05:05:36.912Z,91.40
2017-09-16T05:08:04.537Z,91.30
2017-09-16T05:10:32.183Z,91.20
2017-09-16T05:12:59.778Z,91.30
2017-09-16T05:15:27.422Z,91.40
2017-09-16T05:17:55.078Z,91.30
2017-09-16T05:20:23.459Z,91.10
2017-09-16T05:22:51.121Z,91.10
2017-09-16T05:25:18.757Z,91.10
2017-09-16T05:27:46.466Z,91.20
2017-09-16T05:30:14.109Z,91.10
2017-09-16T05:32:41.717Z,91.10
2017-09-16T05:35:09.447Z,91.10
2017-09-16T05:37:37.098Z,91.10
2017-09-16T05:40:04.801Z,91.10
2017-09-16T05:42:32.494Z,90.90
2017-09-16T05:45:00.854Z,90.90
2017-09-16T05:47:28.581Z,90.90
2017-09-16T05:49:56.189Z,90.80
2017-09-16T05:52:24.586Z,90.80
2017-09-16T05:54:52.220Z,90.80
2017-09-16T05:57:19.822Z,90.90
2017-09-16T05:59:47.493Z,90.60
2017-09-16T06:02:15.091Z,90.60
2017-09-16T06:04:42.685Z,90.60
2017-09-16T06:07:10.327Z,90.50
2017-09-16T06:09:37.923Z,90.60
2017-09-16T06:12:05.674Z,90.50
2017-09-16T06:14:33.305Z,90.50
2017-09-16T06:17:00.939Z,90.50
2017-09-16T06:19:28.555Z,90.30
2017-09-16T06:21:56.182Z,90.20
2017-09-16T06:24:23.872Z,90.60
2017-09-16T06:26:51.543Z,90.30
2017-09-16T06:29:19.147Z,90.20
2017-09-16T06:31:46.788Z,90.10
2017-09-16T06:34:15.389Z,89.90
2017-09-16T06:36:43.058Z,90.10
2017-09-16T06:39:10.821Z,90.00
2017-09-16T06:41:39.172Z,90.30
2017-09-16T06:44:06.780Z,90.00
2017-09-16T06:46:34.451Z,90.00
2017-09-16T06:49:02.114Z,89.80
2017-09-16T06:51:29.734Z,89.50
2017-09-16T06:53:57.855Z,89.30
2017-09-16T06:56:25.884Z,89.20
2017-09-16T06:58:53.558Z,88.70
2017-09-16T07:01:21.140Z,88.80
2017-09-16T07:03:48.802Z,88.50
2017-09-16T07:06:16.437Z,89.10
2017-09-16T07:08:44.846Z,88.70
2017-09-16T07:11:12.501Z,88.70
2017-09-16T07:13:40.106Z,88.60
2017-09-16T07:16:07.764Z,88.30
2017-09-16T07:18:36.278Z,88.20
2017-09-16T07:21:03.908Z,88.10
2017-09-16T07:23:31.537Z,87.80
2017-09-16T07:25:59.158Z,88.60
2017-09-16T07:28:27.536Z,87.40
2017-09-16T07:30:55.961Z,87.20
2017-09-16T07:33:23.581Z,87.20
2017-09-16T07:35:52.030Z,86.70
2017-09-16T07:38:20.430Z,85.80
2017-09-16T07:40:48.030Z,85.80
2017-09-16T07:43:15.729Z,85.50
2017-09-16T07:45:43.324Z,85.30
2017-09-16T07:48:11.749Z,83.70
2017-09-16T07:50:39.391Z,83.60
2017-09-16T07:53:07.039Z,82.90
2017-09-16T07:55:34.700Z,82.20
2017-09-16T07:58:02.324Z,81.90
2017-09-16T08:00:29.961Z,81.30
2017-09-16T08:02:57.652Z,80.50
2017-09-16T08:05:26.196Z,80.30
2017-09-16T08:07:53.855Z,80.30
2017-09-16T08:10:21.472Z,79.70
2017-09-16T08:12:49.870Z,79.20
2017-09-16T08:15:18.076Z,79.20
2017-09-16T08:17:45.707Z,79.10
2017-09-16T08:20:13.368Z,78.20
2017-09-16T08:22:41.759Z,79.20
2017-09-16T08:25:09.427Z,79.00
2017-09-16T08:27:37.081Z,78.60
2017-09-16T08:30:04.711Z,78.90
2017-09-16T08:32:32.397Z,79.00
2017-09-16T08:35:00.754Z,78.80
2017-09-16T08:37:29.130Z,79.20
2017-09-16T08:39:56.818Z,79.20
2017-09-16T08:42:24.413Z,79.10
2017-09-16T08:44:52.039Z,79.00
2017-09-16T08:47:19.700Z,78.30
2017-09-16T08:49:47.381Z,78.10
2017-09-16T08:52:15.026Z,77.60
2017-09-16T08:54:43.378Z,77.40
2017-09-16T08:57:10.979Z,77.40
2017-09-16T08:59:38.699Z,75.60
2017-09-16T09:02:06.327Z,76.50
2017-09-16T09:04:33.981Z,75.30
2017-09-16T09:07:01.625Z,76.40
2017-09-16T09:09:29.284Z,76.50
2017-09-16T09:11:56.887Z,76.10
2017-09-16T09:14:25.314Z,76.20
2017-09-16T09:16:52.973Z,76.20
2017-09-16T09:19:21.369Z,74.20
2017-09-16T09:21:49.016Z,74.20
2017-09-16T09:24:17.377Z,75.20
2017-09-16T09:26:45.028Z,75.10
2017-09-16T09:29:12.656Z,74.60
2017-09-16T09:31:40.337Z,73.70
2017-09-16T09:34:07.982Z,73.30
2017-09-16T09:39:09.443Z,73.20
2017-09-16T09:41:37.137Z,72.30
2017-09-16T09:44:04.745Z,73.20
2017-09-16T09:46:32.388Z,73.90
2017-09-16T09:49:00.774Z,73.10
2017-09-16T09:51:29.282Z,73.20
2017-09-16T09:53:56.915Z,72.90
2017-09-16T09:56:24.551Z,72.00
2017-09-16T09:58:52.177Z,72.60
2017-09-16T10:01:20.167Z,72.00
2017-09-16T10:03:47.757Z,71.20
2017-09-16T10:06:15.386Z,71.40
2017-09-16T10:08:42.983Z,69.40
2017-09-16T10:11:12.323Z,68.20
2017-09-16T10:13:39.907Z,68.20
2017-09-16T10:16:08.289Z,66.90
2017-09-16T10:18:35.926Z,66.90
2017-09-16T10:21:04.385Z,66.30
2017-09-16T10:23:32.015Z,66.30
2017-09-16T10:25:59.653Z,66.30
2017-09-16T10:28:28.121Z,67.10
2017-09-16T10:30:55.760Z,67.80
2017-09-16T10:33:23.376Z,68.50
2017-09-16T10:35:50.987Z,69.20
2017-09-16T10:38:18.766Z,68.70
2017-09-16T10:40:46.399Z,67.90
2017-09-16T10:43:14.020Z,67.40
2017-09-16T10:45:41.645Z,66.10
2017-09-16T10:48:09.281Z,65.10
2017-09-16T10:50:36.927Z,65.10
2017-09-16T10:53:05.289Z,63.90
2017-09-16T10:55:32.940Z,63.90
2017-09-16T10:58:00.558Z,63.50
2017-09-16T11:00:28.268Z,63.20
2017-09-16T11:02:55.859Z,62.60
2017-09-16T11:05:24.263Z,63.60
2017-09-16T11:07:51.865Z,63.60
2017-09-16T11:10:19.482Z,63.90
2017-09-16T11:12:47.100Z,64.50
2017-09-16T11:15:14.744Z,64.10
2017-09-16T11:17:42.337Z,64.20
2017-09-16T11:20:10.773Z,61.80
2017-09-16T11:22:38.429Z,61.60
2017-09-16T11:25:06.022Z,61.40
2017-09-16T11:27:33.650Z,61.80
2017-09-16T11:30:01.265Z,61.50
2017-09-16T11:32:28.946Z,61.00
2017-09-16T11:34:56.522Z,61.50
2017-09-16T11:37:24.143Z,63.70
2017-09-16T11:39:52.658Z,62.30
2017-09-16T11:42:20.313Z,62.40
2017-09-16T11:44:47.952Z,61.70
2017-09-16T11:47:15.561Z,62.20
2017-09-16T11:49:43.959Z,62.20
2017-09-16T11:52:11.590Z,63.00
2017-09-16T11:54:39.210Z,62.80
2017-09-16T11:57:07.634Z,63.60
2017-09-16T11:59:35.267Z,63.60
2017-09-16T12:02:02.894Z,63.00
2017-09-16T12:04:30.547Z,61.30
2017-09-16T12:06:58.179Z,62.10
2017-09-16T12:09:25.804Z,61.60
2017-09-16T12:11:54.135Z,63.70
2017-09-16T12:14:22.120Z,63.70
2017-09-16T12:16:49.742Z,64.40
2017-09-16T12:19:17.326Z,64.70
2017-09-16T12:21:45.501Z,65.00
2017-09-16T12:24:13.089Z,65.80
2017-09-16T12:26:40.703Z,66.20
2017-09-16T12:29:09.114Z,68.30
2017-09-16T12:31:36.785Z,68.40
2017-09-16T12:34:04.450Z,68.80
2017-09-16T12:36:32.200Z,70.20
2017-09-16T12:38:59.884Z,70.70
2017-09-16T12:41:28.197Z,71.20
2017-09-16T12:43:56.565Z,71.30
2017-09-16T12:46:24.209Z,71.30
2017-09-16T12:48:51.848Z,70.20
2017-09-16T12:51:20.393Z,69.50
2017-09-16T12:53:48.816Z,68.50
2017-09-16T12:56:16.395Z,68.50
2017-09-16T12:58:44.013Z,68.10
2017-09-16T13:01:11.708Z,67.40
2017-09-16T13:03:40.119Z,68.70
2017-09-16T13:06:08.543Z,69.30
2017-09-16T13:08:36.140Z,69.30
2017-09-16T13:11:03.770Z,68.50
2017-09-16T13:13:31.466Z,69.40
2017-09-16T13:15:59.053Z,68.30
2017-09-16T13:18:27.385Z,69.10
2017-09-16T13:20:55.689Z,69.20
2017-09-16T13:23:23.305Z,69.10
2017-09-16T13:25:50.964Z,68.80
2017-09-16T13:28:18.644Z,68.90
2017-09-16T13:30:46.342Z,69.70
2017-09-16T13:33:13.934Z,68.60
2017-09-16T13:35:41.516Z,66.30
2017-09-16T13:38:09.168Z,64.60
2017-09-16T13:40:36.749Z,64.90
2017-09-16T13:43:04.361Z,65.10
2017-09-16T13:45:31.946Z,64.40
2017-09-16T13:48:00.273Z,63.70
2017-09-16T13:50:28.833Z,61.70
2017-09-16T13:52:56.507Z,61.40
2017-09-16T13:55:24.137Z,60.30
2017-09-16T13:57:51.976Z,60.00
2017-09-16T14:00:19.597Z,61.10
2017-09-16T14:02:47.176Z,61.00
2017-09-16T14:05:14.848Z,61.30
2017-09-16T14:07:43.211Z,63.10
2017-09-16T14:10:10.842Z,63.00
2017-09-16T14:12:38.519Z,63.40
2017-09-16T14:15:06.406Z,63.90
2017-09-16T14:17:35.017Z,63.10
2017-09-16T14:20:03.432Z,61.90
2017-09-16T14:22:31.294Z,61.70
2017-09-16T14:24:58.949Z,61.80
2017-09-16T14:27:26.655Z,61.60
2017-09-16T14:29:54.273Z,61.50
2017-09-16T14:32:21.865Z,61.60
2017-09-16T14:34:49.512Z,60.30
2017-09-16T14:37:18.227Z,60.70
2017-09-16T14:39:45.860Z,60.40
2017-09-16T14:42:13.454Z,61.10
2017-09-16T14:44:41.063Z,61.80
2017-09-16T14:47:08.721Z,61.10
2017-09-16T14:49:36.436Z,60.80
2017-09-16T14:52:04.069Z,60.70
2017-09-16T14:54:31.683Z,60.50
2017-09-16T14:57:00.955Z,59.30
2017-09-16T14:59:29.434Z,59.20
2017-09-16T15:01:57.055Z,59.20
2017-09-16T15:04:24.653Z,59.50
2017-09-16T15:06:52.263Z,60.10
2017-09-16T15:09:19.886Z,61.10
2017-09-16T15:11:48.257Z,60.90
2017-09-16T15:14:16.630Z,60.80
2017-09-16T15:16:44.213Z,60.40
2017-09-16T15:19:12.621Z,60.60
2017-09-16T15:21:40.245Z,60.60
2017-09-16T15:24:07.868Z,59.60
2017-09-16T15:26:35.496Z,59.50
2017-09-16T15:29:03.149Z,59.70
2017-09-16T15:31:31.604Z,59.50
2017-09-16T15:33:59.217Z,59.50
2017-09-16T15:36:26.896Z,58.80
2017-09-16T15:38:54.540Z,58.40
2017-09-16T15:41:22.148Z,58.10
2017-09-16T15:43:49.783Z,58.50
2017-09-16T15:46:17.424Z,59.60
2017-09-16T15:48:45.074Z,58.90
2017-09-16T15:51:12.701Z,57.50
2017-09-16T15:53:41.731Z,57.20
2017-09-16T15:56:11.855Z,57.20
2017-09-16T15:58:39.509Z,56.80
2017-09-16T16:01:07.110Z,58.40
2017-09-16T16:03:34.802Z,58.70
2017-09-16T16:06:02.412Z,58.40
2017-09-16T16:08:30.100Z,56.70
2017-09-16T16:10:57.726Z,55.80
2017-09-16T16:13:25.315Z,55.10
2017-09-16T16:15:52.970Z,55.10
2017-09-16T16:18:20.591Z,55.40
2017-09-16T16:20:48.231Z,55.10
2017-09-16T16:23:15.896Z,55.40
2017-09-16T16:25:44.281Z,55.60
2017-09-16T16:28:12.662Z,55.40
2017-09-16T16:30:40.259Z,55.40
2017-09-16T16:33:08.014Z,55.90
2017-09-16T16:35:35.617Z,56.10
2017-09-16T16:38:03.321Z,55.80
2017-09-16T16:40:30.967Z,57.30
2017-09-16T16:42:59.362Z,61.70
2017-09-16T16:45:26.990Z,61.70
2017-09-16T16:47:54.571Z,62.90
2017-09-16T16:50:22.916Z,64.60
2017-09-16T16:52:50.563Z,64.50
2017-09-16T16:55:18.154Z,65.30
2017-09-16T16:57:46.575Z,66.40
2017-09-16T17:00:14.215Z,66.40
2017-09-16T17:02:42.618Z,67.60
2017-09-16T17:05:10.238Z,67.60
2017-09-16T17:07:37.912Z,67.70
2017-09-16T17:10:06.329Z,68.40
2017-09-16T17:12:35.497Z,68.40
2017-09-16T17:15:04.133Z,69.60
2017-09-16T17:17:31.777Z,69.50
2017-09-16T17:19:59.437Z,69.70
2017-09-16T17:22:27.057Z,70.40
2017-09-16T17:24:55.467Z,71.30
2017-09-16T17:27:24.360Z,71.30
2017-09-16T17:29:51.937Z,72.20
2017-09-16T17:32:19.721Z,73.10
2017-09-16T17:34:47.931Z,73.60
2017-09-16T17:37:15.639Z,74.40
2017-09-16T17:39:43.386Z,75.50
2017-09-16T17:42:11.032Z,75.60
2017-09-16T17:44:39.403Z,76.70
2017-09-16T17:47:07.075Z,76.70
2017-09-16T17:49:34.708Z,77.00
2017-09-16T17:52:02.734Z,77.20
2017-09-16T17:54:30.328Z,77.70
2017-09-16T17:56:57.964Z,77.80
2017-09-16T17:59:25.609Z,78.30
2017-09-16T18:01:53.251Z,78.50
2017-09-16T18:04:21.528Z,79.00
2017-09-16T18:06:49.127Z,79.60
2017-09-16T18:09:16.757Z,79.70
2017-09-16T18:11:44.437Z,79.20
2017-09-16T18:14:12.100Z,79.30
2017-09-16T18:16:39.701Z,79.70
2017-09-16T18:19:07.332Z,80.90
2017-09-16T18:21:34.924Z,80.30
2017-09-16T18:24:02.725Z,80.40
2017-09-16T18:26:30.341Z,80.30
2017-09-16T18:28:57.997Z,80.40
2017-09-16T18:31:25.636Z,81.00
2017-09-16T18:33:53.253Z,81.10
2017-09-16T18:36:21.630Z,80.00
2017-09-16T18:38:49.281Z,80.00
2017-09-16T18:41:16.920Z,80.00
2017-09-16T18:43:44.698Z,83.00
2017-09-16T18:46:12.329Z,81.70
2017-09-16T18:48:40.004Z,82.50
2017-09-16T18:51:08.367Z,82.20
2017-09-16T18:53:36.107Z,83.00
2017-09-16T18:56:03.729Z,82.40
2017-09-16T18:58:31.369Z,82.60
2017-09-16T19:00:59.007Z,82.90
2017-09-16T19:03:26.613Z,82.90
2017-09-16T19:05:54.221Z,83.40
2017-09-16T19:08:21.941Z,83.90
2017-09-16T19:10:50.336Z,84.70
2017-09-16T19:13:18.695Z,85.90
2017-09-16T19:15:46.324Z,85.90
2017-09-16T19:18:13.918Z,85.90
2017-09-16T19:20:42.297Z,86.70
2017-09-16T19:23:10.743Z,86.60
2017-09-16T19:25:38.362Z,86.40
2017-09-16T19:28:06.741Z,87.00
2017-09-16T19:30:34.366Z,87.00
2017-09-16T19:33:01.965Z,87.10
2017-09-16T19:35:29.617Z,87.00
2017-09-16T19:37:57.977Z,86.50
2017-09-16T19:40:26.404Z,85.80
2017-09-16T19:42:54.056Z,85.80
2017-09-16T19:45:22.144Z,85.70
2017-09-16T19:47:49.996Z,85.50
2017-09-16T19:50:18.027Z,85.20
2017-09-16T19:52:46.771Z,85.00
2017-09-16T19:55:14.639Z,85.00
2017-09-16T19:57:42.323Z,85.10
2017-09-16T20:00:09.984Z,85.30
2017-09-16T20:02:37.803Z,86.90
2017-09-16T20:05:05.584Z,87.10
2017-09-16T20:07:33.309Z,88.40
2017-09-16T20:10:00.990Z,88.00
2017-09-16T20:12:28.803Z,87.90
2017-09-16T20:14:56.508Z,87.50
2017-09-16T20:17:24.381Z,87.70
2017-09-16T20:19:52.267Z,87.10
2017-09-16T20:22:20.028Z,85.70
2017-09-16T20:24:47.680Z,83.90
2017-09-16T20:27:16.275Z,82.50
2017-09-16T20:29:43.949Z,82.10
2017-09-16T20:32:11.561Z,82.60
2017-09-16T20:34:39.258Z,84.00
2017-09-16T20:37:06.914Z,85.10
2017-09-16T20:39:34.557Z,86.10
2017-09-16T20:42:03.023Z,86.60
2017-09-16T20:44:30.664Z,87.20
2017-09-16T20:46:58.292Z,87.00
2017-09-16T20:49:25.880Z,85.70
2017-09-16T20:51:54.308Z,85.20
2017-09-16T20:54:21.946Z,85.20
2017-09-16T20:56:49.551Z,84.90
2017-09-16T20:59:17.946Z,84.80
2017-09-16T21:01:46.351Z,84.80
2017-09-16T21:04:13.961Z,84.80
2017-09-16T21:06:41.601Z,83.80
2017-09-16T21:09:09.208Z,83.00
2017-09-16T21:11:36.820Z,83.10
2017-09-16T21:14:05.028Z,82.70
2017-09-16T21:16:32.653Z,82.00
2017-09-16T21:19:00.323Z,82.20
2017-09-16T21:21:27.910Z,81.90
2017-09-16T21:23:55.524Z,82.00
2017-09-16T21:26:23.181Z,82.20
2017-09-16T21:28:50.787Z,82.10
2017-09-16T21:31:18.418Z,81.60
2017-09-16T21:33:46.063Z,81.70
2017-09-16T21:36:13.902Z,81.40
2017-09-16T21:38:42.434Z,81.70
2017-09-16T21:41:10.239Z,81.70
2017-09-16T21:43:37.883Z,81.80
2017-09-16T21:46:05.653Z,82.10
2017-09-16T21:48:33.275Z,82.90
2017-09-16T21:51:00.999Z,84.00
2017-09-16T21:53:29.447Z,85.30
2017-09-16T21:55:57.091Z,85.30
2017-09-16T21:58:24.943Z,85.30
2017-09-16T22:00:52.524Z,85.50
2017-09-16T22:03:20.303Z,85.70
2017-09-16T22:05:48.565Z,85.30
2017-09-16T22:08:16.745Z,85.40
2017-09-16T22:10:44.967Z,85.50
2017-09-16T22:13:13.792Z,86.40
2017-09-16T22:15:41.518Z,86.40
2017-09-16T22:18:09.981Z,87.10
2017-09-16T22:20:37.659Z,87.10
2017-09-16T22:23:06.298Z,88.10
2017-09-16T22:25:34.075Z,88.10
2017-09-16T22:28:01.668Z,88.40
2017-09-16T22:30:30.029Z,89.00
2017-09-16T22:32:57.794Z,89.10
2017-09-16T22:35:25.578Z,89.30
2017-09-16T22:37:53.985Z,89.30
2017-09-16T22:40:21.606Z,89.20
2017-09-16T22:42:49.782Z,90.10
2017-09-16T22:45:17.401Z,89.10
2017-09-16T22:47:44.984Z,89.60
2017-09-16T22:50:12.585Z,89.60
2017-09-16T22:52:40.980Z,89.10
2017-09-16T22:55:08.579Z,89.10
2017-09-16T22:57:36.756Z,90.00
2017-09-16T23:00:04.419Z,89.60
2017-09-16T23:02:32.046Z,90.00
2017-09-16T23:04:59.633Z,90.20
2017-09-16T23:07:27.303Z,90.50
2017-09-16T23:09:54.933Z,90.50
2017-09-16T23:12:22.508Z,90.60
2017-09-16T23:14:50.150Z,90.60
2017-09-16T23:17:17.768Z,90.70
2017-09-16T23:19:45.409Z,91.20
2017-09-16T23:22:13.350Z,90.80
2017-09-16T23:24:40.946Z,91.00
2017-09-16T23:27:08.587Z,91.10
2017-09-16T23:29:36.165Z,91.10
2017-09-16T23:32:04.535Z,91.00
2017-09-16T23:34:32.176Z,91.30
2017-09-16T23:36:59.795Z,91.30
2017-09-16T23:39:28.220Z,91.20
2017-09-16T23:41:55.921Z,91.20
2017-09-16T23:44:24.342Z,91.10
2017-09-16T23:46:51.966Z,91.10
2017-09-16T23:49:20.357Z,91.10
2017-09-16T23:51:47.971Z,91.20
2017-09-16T23:54:15.645Z,91.40
2017-09-16T23:56:43.227Z,91.20
2017-09-16T23:59:10.891Z,91.30
